sensor_id;sensor_type;location;lat;lon;timestamp;pressure;altitude;pressure_sealevel;temperature;humidity
81990;BME280;71485;51.638;-0.182;2024-02-14T00:00:42;100039.01;;;23.11;27.96
81990;BME280;71485;51.638;-0.182;2024-02-14T00:03:14;100032.41;;;23.12;27.97
81990;BME280;71485;51.638;-0.182;2024-02-14T00:05:34;100032.32;;;22.87;27.95
81990;BME280;71485;51.638;-0.182;2024-02-14T00:08:00;100031.88;;;23.11;27.94
81990;BME280;71485;51.638;-0.182;2024-02-14T00:10:26;100036.05;;;23.32;27.97
81990;BME280;71485;51.638;-0.182;2024-02-14T00:12:51;100035.17;;;23.09;27.96
81990;BME280;71485;51.638;-0.182;2024-02-14T00:15:16;100032.94;;;23.10;27.97
81990;BME280;71485;51.638;-0.182;2024-02-14T00:17:41;100030.64;;;23.10;27.97
81990;BME280;71485;51.638;-0.182;2024-02-14T00:20:08;100025.29;;;23.12;27.94
81990;BME280;71485;51.638;-0.182;2024-02-14T00:22:33;100029.25;;;23.35;27.95
81990;BME280;71485;51.638;-0.182;2024-02-14T00:24:58;100031.14;;;23.09;27.96
81990;BME280;71485;51.638;-0.182;2024-02-14T00:27:24;100027.96;;;23.57;27.95
81990;BME280;71485;51.638;-0.182;2024-02-14T00:29:50;100030.32;;;22.82;27.99
81990;BME280;71485;51.638;-0.182;2024-02-14T00:32:15;100031.44;;;23.07;27.97
81990;BME280;71485;51.638;-0.182;2024-02-14T00:34:40;100030.43;;;22.81;27.99
81990;BME280;71485;51.638;-0.182;2024-02-14T00:37:06;100033.43;;;23.07;27.93
81990;BME280;71485;51.638;-0.182;2024-02-14T00:39:33;100037.02;;;23.31;27.95
81990;BME280;71485;51.638;-0.182;2024-02-14T00:41:57;100040.45;;;23.55;27.93
81990;BME280;71485;51.638;-0.182;2024-02-14T00:44:23;100040.14;;;23.05;27.95
81990;BME280;71485;51.638;-0.182;2024-02-14T00:46:56;100042.21;;;23.06;27.91
81990;BME280;71485;51.638;-0.182;2024-02-14T00:49:14;100040.99;;;23.54;27.91
81990;BME280;71485;51.638;-0.182;2024-02-14T00:51:41;100040.13;;;23.02;27.94
81990;BME280;71485;51.638;-0.182;2024-02-14T00:54:05;100040.68;;;23.25;27.97
81990;BME280;71485;51.638;-0.182;2024-02-14T00:56:33;100041.40;;;22.99;27.97
81990;BME280;71485;51.638;-0.182;2024-02-14T00:58:57;100041.13;;;23.24;27.94
81990;BME280;71485;51.638;-0.182;2024-02-14T01:01:22;100040.75;;;23.25;27.92
81990;BME280;71485;51.638;-0.182;2024-02-14T01:03:48;100043.03;;;23.24;27.94
81990;BME280;71485;51.638;-0.182;2024-02-14T01:06:14;100041.05;;;23.00;27.92
81990;BME280;71485;51.638;-0.182;2024-02-14T01:08:39;100040.67;;;23.23;27.91
81990;BME280;71485;51.638;-0.182;2024-02-14T01:11:07;100038.52;;;22.99;27.91
81990;BME280;71485;51.638;-0.182;2024-02-14T01:13:30;100042.95;;;23.25;27.88
81990;BME280;71485;51.638;-0.182;2024-02-14T01:15:56;100041.52;;;22.99;27.89
81990;BME280;71485;51.638;-0.182;2024-02-14T01:18:21;100035.96;;;23.24;27.88
81990;BME280;71485;51.638;-0.182;2024-02-14T01:20:47;100034.49;;;23.24;27.89
81990;BME280;71485;51.638;-0.182;2024-02-14T01:23:13;100037.93;;;22.98;27.93
81990;BME280;71485;51.638;-0.182;2024-02-14T01:25:40;100040.60;;;22.75;27.94
81990;BME280;71485;51.638;-0.182;2024-02-14T01:28:04;100043.88;;;23.21;27.97
81990;BME280;71485;51.638;-0.182;2024-02-14T01:30:31;100042.30;;;23.23;27.94
81990;BME280;71485;51.638;-0.182;2024-02-14T01:32:55;100045.66;;;22.98;27.97
81990;BME280;71485;51.638;-0.182;2024-02-14T01:35:25;100044.03;;;23.02;28.59
81990;BME280;71485;51.638;-0.182;2024-02-14T01:37:50;100042.73;;;23.09;28.26
81990;BME280;71485;51.638;-0.182;2024-02-14T01:40:13;100042.38;;;23.41;28.22
81990;BME280;71485;51.638;-0.182;2024-02-14T01:42:37;100037.50;;;22.95;28.28
81990;BME280;71485;51.638;-0.182;2024-02-14T01:45:04;100033.21;;;23.21;28.27
81990;BME280;71485;51.638;-0.182;2024-02-14T01:47:32;100034.09;;;23.26;28.19
81990;BME280;71485;51.638;-0.182;2024-02-14T01:50:06;100050.74;;;23.28;28.16
81990;BME280;71485;51.638;-0.182;2024-02-14T01:52:24;100050.04;;;23.54;28.08
81990;BME280;71485;51.638;-0.182;2024-02-14T01:55:08;100051.71;;;23.28;28.08
81990;BME280;71485;51.638;-0.182;2024-02-14T01:57:13;100051.70;;;23.49;28.17
81990;BME280;71485;51.638;-0.182;2024-02-14T01:59:37;100053.15;;;22.76;28.15
81990;BME280;71485;51.638;-0.182;2024-02-14T02:02:03;100049.37;;;23.23;28.17
81990;BME280;71485;51.638;-0.182;2024-02-14T02:04:29;100050.67;;;23.29;28.03
81990;BME280;71485;51.638;-0.182;2024-02-14T02:06:54;100049.46;;;23.35;27.88
81990;BME280;71485;51.638;-0.182;2024-02-14T02:09:19;100050.19;;;23.61;27.88
81990;BME280;71485;51.638;-0.182;2024-02-14T02:11:48;100051.90;;;23.40;27.83
81990;BME280;71485;51.638;-0.182;2024-02-14T02:14:10;100052.34;;;23.40;27.79
81990;BME280;71485;51.638;-0.182;2024-02-14T02:16:36;100049.19;;;22.93;27.76
81990;BME280;71485;51.638;-0.182;2024-02-14T02:19:02;100043.93;;;23.39;27.86
81990;BME280;71485;51.638;-0.182;2024-02-14T02:21:29;100045.78;;;23.39;27.88
81990;BME280;71485;51.638;-0.182;2024-02-14T02:23:54;100048.43;;;23.64;27.82
81990;BME280;71485;51.638;-0.182;2024-02-14T02:26:19;100051.78;;;23.63;27.83
81990;BME280;71485;51.638;-0.182;2024-02-14T02:28:44;100054.27;;;23.42;27.80
81990;BME280;71485;51.638;-0.182;2024-02-14T02:31:11;100057.43;;;23.42;27.77
81990;BME280;71485;51.638;-0.182;2024-02-14T02:33:36;100062.84;;;22.96;27.78
81990;BME280;71485;51.638;-0.182;2024-02-14T02:36:02;100062.10;;;23.46;27.74
81990;BME280;71485;51.638;-0.182;2024-02-14T02:38:27;100061.95;;;23.47;27.70
81990;BME280;71485;51.638;-0.182;2024-02-14T02:40:54;100064.95;;;23.47;27.71
81990;BME280;71485;51.638;-0.182;2024-02-14T02:43:18;100065.71;;;23.27;27.64
81990;BME280;71485;51.638;-0.182;2024-02-14T02:45:44;100066.95;;;23.53;27.70
81990;BME280;71485;51.638;-0.182;2024-02-14T02:48:09;100066.69;;;23.50;27.70
81990;BME280;71485;51.638;-0.182;2024-02-14T02:50:37;100063.96;;;23.07;27.61
81990;BME280;71485;51.638;-0.182;2024-02-14T02:53:00;100065.14;;;23.30;27.62
81990;BME280;71485;51.638;-0.182;2024-02-14T02:55:25;100067.40;;;23.58;27.59
81990;BME280;71485;51.638;-0.182;2024-02-14T02:57:53;100065.56;;;23.57;27.51
81990;BME280;71485;51.638;-0.182;2024-02-14T03:00:19;100061.29;;;23.65;27.54
81990;BME280;71485;51.638;-0.182;2024-02-14T03:02:42;100060.98;;;23.34;27.61
81990;BME280;71485;51.638;-0.182;2024-02-14T03:05:08;100059.57;;;23.54;27.62
81990;BME280;71485;51.638;-0.182;2024-02-14T03:07:34;100059.47;;;23.27;27.62
81990;BME280;71485;51.638;-0.182;2024-02-14T03:09:59;100059.00;;;23.25;27.60
81990;BME280;71485;51.638;-0.182;2024-02-14T03:12:25;100054.86;;;23.48;27.58
81990;BME280;71485;51.638;-0.182;2024-02-14T03:14:50;100057.62;;;23.24;27.57
81990;BME280;71485;51.638;-0.182;2024-02-14T03:17:18;100055.29;;;23.47;27.56
81990;BME280;71485;51.638;-0.182;2024-02-14T03:19:53;100051.68;;;23.24;27.54
81990;BME280;71485;51.638;-0.182;2024-02-14T03:22:10;100048.32;;;23.26;27.51
81990;BME280;71485;51.638;-0.182;2024-02-14T03:24:37;100041.92;;;23.26;27.50
81990;BME280;71485;51.638;-0.182;2024-02-14T03:27:17;100043.04;;;23.22;27.53
81990;BME280;71485;51.638;-0.182;2024-02-14T03:29:27;100043.81;;;23.45;27.53
81990;BME280;71485;51.638;-0.182;2024-02-14T03:31:50;100046.07;;;23.26;27.50
81990;BME280;71485;51.638;-0.182;2024-02-14T03:34:15;100041.30;;;23.25;27.50
81990;BME280;71485;51.638;-0.182;2024-02-14T03:36:40;100037.11;;;23.25;27.49
81990;BME280;71485;51.638;-0.182;2024-02-14T03:39:08;100037.03;;;23.49;27.49
81990;BME280;71485;51.638;-0.182;2024-02-14T03:41:33;100034.74;;;23.22;27.52
81990;BME280;71485;51.638;-0.182;2024-02-14T03:44:00;100038.61;;;23.22;27.53
81990;BME280;71485;51.638;-0.182;2024-02-14T03:46:28;100034.52;;;23.20;27.53
81990;BME280;71485;51.638;-0.182;2024-02-14T03:48:49;100036.75;;;23.20;27.54
81990;BME280;71485;51.638;-0.182;2024-02-14T03:51:14;100037.17;;;23.19;27.54
81990;BME280;71485;51.638;-0.182;2024-02-14T03:53:40;100040.33;;;23.19;27.55
81990;BME280;71485;51.638;-0.182;2024-02-14T03:56:06;100039.79;;;23.16;27.57
81990;BME280;71485;51.638;-0.182;2024-02-14T03:58:33;100036.61;;;22.95;27.55
81990;BME280;71485;51.638;-0.182;2024-02-14T04:00:56;100032.52;;;23.17;27.57
81990;BME280;71485;51.638;-0.182;2024-02-14T04:03:22;100032.84;;;23.64;27.55
81990;BME280;71485;51.638;-0.182;2024-02-14T04:05:48;100029.08;;;23.39;27.56
81990;BME280;71485;51.638;-0.182;2024-02-14T04:08:13;100030.43;;;23.12;27.57
81990;BME280;71485;51.638;-0.182;2024-02-14T04:10:39;100028.38;;;23.12;27.58
81990;BME280;71485;51.638;-0.182;2024-02-14T04:13:05;100035.15;;;23.12;27.59
81990;BME280;71485;51.638;-0.182;2024-02-14T04:15:30;100038.48;;;23.60;27.59
81990;BME280;71485;51.638;-0.182;2024-02-14T04:17:56;100034.26;;;22.87;27.58
81990;BME280;71485;51.638;-0.182;2024-02-14T04:20:21;100034.86;;;23.60;27.56
81990;BME280;71485;51.638;-0.182;2024-02-14T04:22:47;100043.51;;;23.13;27.57
81990;BME280;71485;51.638;-0.182;2024-02-14T04:25:12;100042.43;;;23.36;27.55
81990;BME280;71485;51.638;-0.182;2024-02-14T04:27:39;100037.66;;;23.11;27.57
81990;BME280;71485;51.638;-0.182;2024-02-14T04:30:05;100037.87;;;23.12;27.54
81990;BME280;71485;51.638;-0.182;2024-02-14T04:32:31;100033.06;;;23.13;27.53
81990;BME280;71485;51.638;-0.182;2024-02-14T04:34:55;100034.17;;;23.09;27.54
81990;BME280;71485;51.638;-0.182;2024-02-14T04:37:21;100041.83;;;23.33;27.53
81990;BME280;71485;51.638;-0.182;2024-02-14T04:39:47;100042.93;;;23.08;27.51
81990;BME280;71485;51.638;-0.182;2024-02-14T04:42:12;100044.77;;;23.29;27.51
81990;BME280;71485;51.638;-0.182;2024-02-14T04:44:37;100043.75;;;22.56;27.51
81990;BME280;71485;51.638;-0.182;2024-02-14T04:47:04;100040.29;;;23.26;27.51
81990;BME280;71485;51.638;-0.182;2024-02-14T04:49:28;100045.50;;;23.27;27.48
81990;BME280;71485;51.638;-0.182;2024-02-14T04:51:54;100046.86;;;23.06;27.46
81990;BME280;71485;51.638;-0.182;2024-02-14T04:54:20;100053.16;;;23.14;27.35
81990;BME280;71485;51.638;-0.182;2024-02-14T04:56:47;100055.30;;;23.11;27.39
81990;BME280;71485;51.638;-0.182;2024-02-14T04:59:11;100052.85;;;23.31;27.40
81990;BME280;71485;51.638;-0.182;2024-02-14T05:01:36;100043.42;;;22.80;27.44
81990;BME280;71485;51.638;-0.182;2024-02-14T05:04:04;100051.74;;;23.49;27.46
81990;BME280;71485;51.638;-0.182;2024-02-14T05:06:27;100050.95;;;23.25;27.46
81990;BME280;71485;51.638;-0.182;2024-02-14T05:08:54;100056.22;;;23.25;27.45
81990;BME280;71485;51.638;-0.182;2024-02-14T05:11:19;100056.88;;;23.01;27.46
81990;BME280;71485;51.638;-0.182;2024-02-14T05:13:44;100056.11;;;23.01;27.46
81990;BME280;71485;51.638;-0.182;2024-02-14T05:16:12;100056.47;;;23.26;27.46
81990;BME280;71485;51.638;-0.182;2024-02-14T05:18:36;100053.23;;;22.72;27.50
81990;BME280;71485;51.638;-0.182;2024-02-14T05:21:01;100055.28;;;23.12;27.89
81990;BME280;71485;51.638;-0.182;2024-02-14T05:23:27;100058.23;;;22.77;28.09
81990;BME280;71485;51.638;-0.182;2024-02-14T05:25:53;100056.22;;;22.47;28.23
81990;BME280;71485;51.638;-0.182;2024-02-14T05:28:18;100058.71;;;22.71;28.28
81990;BME280;71485;51.638;-0.182;2024-02-14T05:30:44;100060.78;;;22.50;28.32
81990;BME280;71485;51.638;-0.182;2024-02-14T05:33:09;100066.68;;;22.53;28.32
81990;BME280;71485;51.638;-0.182;2024-02-14T05:35:35;100067.52;;;22.32;28.35
81990;BME280;71485;51.638;-0.182;2024-02-14T05:38:00;100055.72;;;23.08;28.30
81990;BME280;71485;51.638;-0.182;2024-02-14T05:40:30;100052.79;;;22.86;28.32
81990;BME280;71485;51.638;-0.182;2024-02-14T05:42:53;100062.37;;;22.93;28.28
81990;BME280;71485;51.638;-0.182;2024-02-14T05:45:18;100055.15;;;23.21;28.25
81990;BME280;71485;51.638;-0.182;2024-02-14T05:47:46;100056.19;;;22.80;28.21
81990;BME280;71485;51.638;-0.182;2024-02-14T05:50:08;100060.93;;;23.09;28.20
81990;BME280;71485;51.638;-0.182;2024-02-14T05:52:34;100057.84;;;22.91;28.15
81990;BME280;71485;51.638;-0.182;2024-02-14T05:54:59;100056.42;;;23.15;28.20
81990;BME280;71485;51.638;-0.182;2024-02-14T05:57:27;100060.22;;;23.21;28.19
81990;BME280;71485;51.638;-0.182;2024-02-14T05:59:51;100060.05;;;23.30;28.13
81990;BME280;71485;51.638;-0.182;2024-02-14T06:02:16;100056.16;;;23.09;28.14
81990;BME280;71485;51.638;-0.182;2024-02-14T06:04:42;100054.79;;;23.14;28.12
81990;BME280;71485;51.638;-0.182;2024-02-14T06:07:07;100056.48;;;23.64;28.16
81990;BME280;71485;51.638;-0.182;2024-02-14T06:09:33;100057.27;;;23.45;28.14
81990;BME280;71485;51.638;-0.182;2024-02-14T06:11:59;100055.20;;;23.48;28.14
81990;BME280;71485;51.638;-0.182;2024-02-14T06:14:24;100055.74;;;23.50;28.15
81990;BME280;71485;51.638;-0.182;2024-02-14T06:16:50;100054.10;;;23.25;28.18
81990;BME280;71485;51.638;-0.182;2024-02-14T06:19:17;100049.43;;;23.11;28.28
81990;BME280;71485;51.638;-0.182;2024-02-14T06:21:41;100046.55;;;22.92;28.43
81990;BME280;71485;51.638;-0.182;2024-02-14T06:24:07;100047.79;;;23.05;28.57
81990;BME280;71485;51.638;-0.182;2024-02-14T06:26:36;100054.50;;;22.99;28.61
81990;BME280;71485;51.638;-0.182;2024-02-14T06:28:58;100054.67;;;23.17;28.69
81990;BME280;71485;51.638;-0.182;2024-02-14T06:31:24;100056.19;;;22.89;28.74
81990;BME280;71485;51.638;-0.182;2024-02-14T06:33:49;100052.89;;;22.64;28.76
81990;BME280;71485;51.638;-0.182;2024-02-14T06:36:15;100064.14;;;23.29;28.57
81990;BME280;71485;51.638;-0.182;2024-02-14T06:38:46;100064.72;;;22.79;28.59
81990;BME280;71485;51.638;-0.182;2024-02-14T06:41:10;100068.80;;;23.10;28.48
81990;BME280;71485;51.638;-0.182;2024-02-14T06:43:33;100067.94;;;23.17;28.39
81990;BME280;71485;51.638;-0.182;2024-02-14T06:45:57;100067.38;;;23.00;28.31
81990;BME280;71485;51.638;-0.182;2024-02-14T06:48:29;100067.47;;;23.53;28.25
81990;BME280;71485;51.638;-0.182;2024-02-14T06:50:54;100073.24;;;22.13;28.22
81990;BME280;71485;51.638;-0.182;2024-02-14T06:53:14;100078.28;;;23.20;28.08
81990;BME280;71485;51.638;-0.182;2024-02-14T06:55:39;100083.69;;;23.15;28.14
81990;BME280;71485;51.638;-0.182;2024-02-14T06:58:06;100086.78;;;23.59;28.22
81990;BME280;71485;51.638;-0.182;2024-02-14T07:00:31;100087.10;;;23.32;28.28
81990;BME280;71485;51.638;-0.182;2024-02-14T07:02:56;100091.88;;;23.58;28.29
81990;BME280;71485;51.638;-0.182;2024-02-14T07:05:22;100093.60;;;23.30;28.34
81990;BME280;71485;51.638;-0.182;2024-02-14T07:07:47;100093.11;;;23.06;28.37
81990;BME280;71485;51.638;-0.182;2024-02-14T07:10:14;100094.49;;;23.07;28.39
81990;BME280;71485;51.638;-0.182;2024-02-14T07:12:39;100097.98;;;23.06;28.42
81990;BME280;71485;51.638;-0.182;2024-02-14T07:15:08;100098.63;;;23.33;28.42
81990;BME280;71485;51.638;-0.182;2024-02-14T07:17:31;100103.43;;;23.06;28.49
81990;BME280;71485;51.638;-0.182;2024-02-14T07:19:56;100100.70;;;23.07;28.52
81990;BME280;71485;51.638;-0.182;2024-02-14T07:22:22;100096.44;;;23.56;28.49
81990;BME280;71485;51.638;-0.182;2024-02-14T07:24:47;100096.14;;;23.06;28.53
81990;BME280;71485;51.638;-0.182;2024-02-14T07:27:15;100091.01;;;23.29;28.56
81990;BME280;71485;51.638;-0.182;2024-02-14T07:29:38;100101.29;;;23.06;28.56
81990;BME280;71485;51.638;-0.182;2024-02-14T07:32:05;100103.35;;;23.52;28.55
81990;BME280;71485;51.638;-0.182;2024-02-14T07:34:29;100103.02;;;23.27;28.60
81990;BME280;71485;51.638;-0.182;2024-02-14T07:36:54;100104.40;;;23.00;28.62
81990;BME280;71485;51.638;-0.182;2024-02-14T07:39:30;100102.54;;;23.03;28.58
81990;BME280;71485;51.638;-0.182;2024-02-14T07:41:49;100105.24;;;23.02;28.60
81990;BME280;71485;51.638;-0.182;2024-02-14T07:44:12;100112.81;;;23.50;28.57
81990;BME280;71485;51.638;-0.182;2024-02-14T07:46:45;100109.91;;;22.57;28.67
81990;BME280;71485;51.638;-0.182;2024-02-14T07:49:02;100118.00;;;23.39;28.75
81990;BME280;71485;51.638;-0.182;2024-02-14T07:51:28;100119.81;;;23.20;28.75
81990;BME280;71485;51.638;-0.182;2024-02-14T07:53:54;100114.15;;;23.24;28.77
81990;BME280;71485;51.638;-0.182;2024-02-14T07:56:19;100109.81;;;23.48;28.79
81990;BME280;71485;51.638;-0.182;2024-02-14T07:58:46;100110.78;;;23.47;28.81
81990;BME280;71485;51.638;-0.182;2024-02-14T08:01:10;100115.50;;;23.26;28.82
81990;BME280;71485;51.638;-0.182;2024-02-14T08:03:36;100115.91;;;23.06;28.74
81990;BME280;71485;51.638;-0.182;2024-02-14T08:06:02;100114.54;;;23.55;28.82
81990;BME280;71485;51.638;-0.182;2024-02-14T08:08:27;100110.00;;;23.50;28.90
81990;BME280;71485;51.638;-0.182;2024-02-14T08:10:53;100118.93;;;23.25;29.09
81990;BME280;71485;51.638;-0.182;2024-02-14T08:13:20;100122.62;;;23.83;28.85
81990;BME280;71485;51.638;-0.182;2024-02-14T08:15:44;100118.72;;;23.40;28.82
81990;BME280;71485;51.638;-0.182;2024-02-14T08:18:10;100116.96;;;23.40;28.84
81990;BME280;71485;51.638;-0.182;2024-02-14T08:20:36;100119.28;;;22.99;28.91
81990;BME280;71485;51.638;-0.182;2024-02-14T08:23:01;100120.70;;;23.50;28.70
81990;BME280;71485;51.638;-0.182;2024-02-14T08:25:29;100121.89;;;23.47;28.78
81990;BME280;71485;51.638;-0.182;2024-02-14T08:27:53;100123.39;;;23.48;28.77
81990;BME280;71485;51.638;-0.182;2024-02-14T08:30:18;100132.31;;;23.65;28.83
81990;BME280;71485;51.638;-0.182;2024-02-14T08:32:43;100130.25;;;23.29;28.87
81990;BME280;71485;51.638;-0.182;2024-02-14T08:35:09;100129.32;;;23.19;28.96
81990;BME280;71485;51.638;-0.182;2024-02-14T08:37:35;100135.48;;;23.13;29.00
81990;BME280;71485;51.638;-0.182;2024-02-14T08:40:02;100134.50;;;23.15;28.92
81990;BME280;71485;51.638;-0.182;2024-02-14T08:42:30;100128.90;;;23.08;29.00
81990;BME280;71485;51.638;-0.182;2024-02-14T08:44:51;100120.22;;;23.23;29.14
81990;BME280;71485;51.638;-0.182;2024-02-14T08:47:17;100119.28;;;23.30;29.07
81990;BME280;71485;51.638;-0.182;2024-02-14T08:49:42;100115.91;;;23.26;29.00
81990;BME280;71485;51.638;-0.182;2024-02-14T08:52:08;100117.10;;;23.43;28.98
81990;BME280;71485;51.638;-0.182;2024-02-14T08:54:34;100121.05;;;23.22;28.90
81990;BME280;71485;51.638;-0.182;2024-02-14T08:57:05;100118.55;;;23.20;28.90
81990;BME280;71485;51.638;-0.182;2024-02-14T08:59:25;100118.64;;;23.15;28.92
81990;BME280;71485;51.638;-0.182;2024-02-14T09:01:50;100122.49;;;23.12;28.94
81990;BME280;71485;51.638;-0.182;2024-02-14T09:04:16;100125.41;;;23.07;28.98
81990;BME280;71485;51.638;-0.182;2024-02-14T09:06:41;100125.31;;;23.06;28.99
81990;BME280;71485;51.638;-0.182;2024-02-14T09:09:09;100130.76;;;23.04;29.02
81990;BME280;71485;51.638;-0.182;2024-02-14T09:11:34;100129.97;;;23.02;29.04
81990;BME280;71485;51.638;-0.182;2024-02-14T09:13:58;100128.87;;;23.25;29.08
81990;BME280;71485;51.638;-0.182;2024-02-14T09:16:25;100132.19;;;23.20;29.13
81990;BME280;71485;51.638;-0.182;2024-02-14T09:18:50;100133.72;;;22.96;29.31
81990;BME280;71485;51.638;-0.182;2024-02-14T09:21:15;100138.53;;;23.22;29.29
81990;BME280;71485;51.638;-0.182;2024-02-14T09:23:41;100132.52;;;22.97;29.43
81990;BME280;71485;51.638;-0.182;2024-02-14T09:26:10;100134.77;;;22.97;29.55
81990;BME280;71485;51.638;-0.182;2024-02-14T09:28:33;100135.06;;;22.97;29.69
81990;BME280;71485;51.638;-0.182;2024-02-14T09:30:57;100140.44;;;23.24;29.77
81990;BME280;71485;51.638;-0.182;2024-02-14T09:33:23;100140.37;;;23.23;29.81
81990;BME280;71485;51.638;-0.182;2024-02-14T09:35:49;100141.01;;;22.98;29.91
81990;BME280;71485;51.638;-0.182;2024-02-14T09:38:16;100139.63;;;23.04;30.28
81990;BME280;71485;51.638;-0.182;2024-02-14T09:40:41;100136.79;;;22.97;31.10
81990;BME280;71485;51.638;-0.182;2024-02-14T09:43:11;100139.12;;;23.26;30.66
81990;BME280;71485;51.638;-0.182;2024-02-14T09:45:31;100140.51;;;23.31;30.40
81990;BME280;71485;51.638;-0.182;2024-02-14T09:48:00;100150.46;;;23.19;30.81
81990;BME280;71485;51.638;-0.182;2024-02-14T09:50:23;100151.77;;;23.26;30.65
81990;BME280;71485;51.638;-0.182;2024-02-14T09:52:48;100154.78;;;23.02;30.68
81990;BME280;71485;51.638;-0.182;2024-02-14T09:55:15;100154.97;;;23.49;30.51
81990;BME280;71485;51.638;-0.182;2024-02-14T09:57:43;100161.12;;;23.19;30.42
81990;BME280;71485;51.638;-0.182;2024-02-14T10:00:05;100161.89;;;23.74;30.26
81990;BME280;71485;51.638;-0.182;2024-02-14T10:02:30;100155.31;;;23.74;30.29
81990;BME280;71485;51.638;-0.182;2024-02-14T10:04:55;100153.84;;;23.63;30.49
81990;BME280;71485;51.638;-0.182;2024-02-14T10:07:21;100152.66;;;23.69;30.41
81990;BME280;71485;51.638;-0.182;2024-02-14T10:09:46;100144.53;;;23.51;30.46
81990;BME280;71485;51.638;-0.182;2024-02-14T10:12:14;100145.40;;;23.02;30.76
81990;BME280;71485;51.638;-0.182;2024-02-14T10:14:38;100144.05;;;23.24;30.51
81990;BME280;71485;51.638;-0.182;2024-02-14T10:17:04;100142.82;;;23.19;31.02
81990;BME280;71485;51.638;-0.182;2024-02-14T10:19:29;100146.95;;;23.23;31.01
81990;BME280;71485;51.638;-0.182;2024-02-14T10:21:56;100144.91;;;23.48;31.11
81990;BME280;71485;51.638;-0.182;2024-02-14T10:24:20;100147.82;;;23.59;31.06
81990;BME280;71485;51.638;-0.182;2024-02-14T10:26:46;100152.86;;;23.56;31.15
81990;BME280;71485;51.638;-0.182;2024-02-14T10:29:11;100164.87;;;24.01;30.57
81990;BME280;71485;51.638;-0.182;2024-02-14T10:31:38;100168.83;;;23.53;30.37
81990;BME280;71485;51.638;-0.182;2024-02-14T10:34:04;100172.55;;;23.89;30.41
81990;BME280;71485;51.638;-0.182;2024-02-14T10:36:29;100173.33;;;23.86;30.38
81990;BME280;71485;51.638;-0.182;2024-02-14T10:38:56;100167.14;;;23.84;30.32
81990;BME280;71485;51.638;-0.182;2024-02-14T10:41:22;100161.59;;;24.07;30.29
81990;BME280;71485;51.638;-0.182;2024-02-14T10:43:49;100164.31;;;23.83;30.26
81990;BME280;71485;51.638;-0.182;2024-02-14T10:46:19;100178.72;;;23.84;30.18
81990;BME280;71485;51.638;-0.182;2024-02-14T10:48:38;100183.33;;;23.36;30.11
81990;BME280;71485;51.638;-0.182;2024-02-14T10:51:02;100186.30;;;24.07;30.07
81990;BME280;71485;51.638;-0.182;2024-02-14T10:53:29;100179.75;;;23.83;30.03
81990;BME280;71485;51.638;-0.182;2024-02-14T10:55:53;100171.84;;;23.83;30.00
81990;BME280;71485;51.638;-0.182;2024-02-14T10:58:19;100161.60;;;24.06;29.97
81990;BME280;71485;51.638;-0.182;2024-02-14T11:00:44;100164.33;;;23.83;29.95
81990;BME280;71485;51.638;-0.182;2024-02-14T11:03:10;100160.71;;;23.84;29.91
81990;BME280;71485;51.638;-0.182;2024-02-14T11:05:44;100160.86;;;23.37;29.86
81990;BME280;71485;51.638;-0.182;2024-02-14T11:08:07;100158.09;;;23.86;29.84
81990;BME280;71485;51.638;-0.182;2024-02-14T11:10:28;100166.67;;;23.84;29.84
81990;BME280;71485;51.638;-0.182;2024-02-14T11:12:54;100175.87;;;23.84;29.82
81990;BME280;71485;51.638;-0.182;2024-02-14T11:15:19;100176.25;;;23.83;29.82
81990;BME280;71485;51.638;-0.182;2024-02-14T11:17:43;100169.25;;;23.61;29.80
81990;BME280;71485;51.638;-0.182;2024-02-14T11:20:14;100173.68;;;24.33;29.94
81990;BME280;71485;51.638;-0.182;2024-02-14T11:22:35;100175.89;;;24.09;29.96
81990;BME280;71485;51.638;-0.182;2024-02-14T11:25:06;100186.65;;;24.39;29.80
81990;BME280;71485;51.638;-0.182;2024-02-14T11:27:28;100178.65;;;24.03;29.91
81990;BME280;71485;51.638;-0.182;2024-02-14T11:29:52;100190.86;;;23.80;30.00
81990;BME280;71485;51.638;-0.182;2024-02-14T11:32:17;100197.46;;;23.83;29.97
81990;BME280;71485;51.638;-0.182;2024-02-14T11:34:42;100201.31;;;23.56;29.93
81990;BME280;71485;51.638;-0.182;2024-02-14T11:37:09;100202.62;;;24.05;29.84
81990;BME280;71485;51.638;-0.182;2024-02-14T11:39:36;100197.37;;;24.15;29.90
81990;BME280;71485;51.638;-0.182;2024-02-14T11:42:00;100197.65;;;24.13;30.03
81990;BME280;71485;51.638;-0.182;2024-02-14T11:44:25;100197.92;;;23.98;29.78
81990;BME280;71485;51.638;-0.182;2024-02-14T11:46:51;100193.65;;;23.97;29.79
81990;BME280;71485;51.638;-0.182;2024-02-14T11:49:16;100195.14;;;23.82;29.73
81990;BME280;71485;51.638;-0.182;2024-02-14T11:51:45;100199.85;;;23.96;29.78
81990;BME280;71485;51.638;-0.182;2024-02-14T11:54:09;100209.33;;;24.07;29.95
81990;BME280;71485;51.638;-0.182;2024-02-14T11:56:35;100204.78;;;23.99;29.99
81990;BME280;71485;51.638;-0.182;2024-02-14T11:58:59;100210.45;;;23.89;30.05
81990;BME280;71485;51.638;-0.182;2024-02-14T12:01:24;100211.84;;;23.83;30.08
81990;BME280;71485;51.638;-0.182;2024-02-14T12:03:49;100207.79;;;23.54;30.10
81990;BME280;71485;51.638;-0.182;2024-02-14T12:06:15;100207.96;;;23.75;30.11
81990;BME280;71485;51.638;-0.182;2024-02-14T12:08:40;100202.73;;;23.26;30.10
81990;BME280;71485;51.638;-0.182;2024-02-14T12:11:07;100196.10;;;23.73;30.07
81990;BME280;71485;51.638;-0.182;2024-02-14T12:13:32;100200.20;;;23.74;30.05
81990;BME280;71485;51.638;-0.182;2024-02-14T12:15:57;100203.31;;;23.50;30.04
81990;BME280;71485;51.638;-0.182;2024-02-14T12:18:23;100203.03;;;23.73;30.04
81990;BME280;71485;51.638;-0.182;2024-02-14T12:20:49;100195.82;;;23.47;30.06
81990;BME280;71485;51.638;-0.182;2024-02-14T12:23:18;100200.09;;;23.71;30.10
81990;BME280;71485;51.638;-0.182;2024-02-14T12:25:41;100201.08;;;23.20;30.18
81990;BME280;71485;51.638;-0.182;2024-02-14T12:28:06;100195.51;;;23.45;30.20
81990;BME280;71485;51.638;-0.182;2024-02-14T12:30:43;100195.10;;;23.71;30.23